createdAt,value
2018-06-27T00:01:43.325Z,16.06
2018-06-27T00:04:11.963Z,16.11
2018-06-27T00:06:40.861Z,16.00
2018-06-27T00:09:12.903Z,16.00
2018-06-27T00:11:41.423Z,15.96
2018-06-27T00:14:10.971Z,15.88
2018-06-27T00:16:39.357Z,15.91
2018-06-27T00:19:08.203Z,15.86
2018-06-27T00:21:36.621Z,15.90
2018-06-27T00:24:05.347Z,15.84
2018-06-27T00:26:33.992Z,15.83
2018-06-27T00:29:02.704Z,15.85
2018-06-27T00:31:31.331Z,15.72
2018-06-27T00:33:59.770Z,15.89
2018-06-27T00:36:28.127Z,15.80
2018-06-27T00:38:56.505Z,15.61
2018-06-27T00:41:25.154Z,15.67
2018-06-27T00:43:53.560Z,15.73
2018-06-27T00:46:22.496Z,15.59
2018-06-27T00:48:50.912Z,15.56
2018-06-27T00:51:19.315Z,15.45
2018-06-27T00:53:53.600Z,15.54
2018-06-27T00:56:22.671Z,15.40
2018-06-27T00:58:50.939Z,15.38
2018-06-27T01:01:19.508Z,15.49
2018-06-27T01:03:48.510Z,15.36
2018-06-27T01:06:17.140Z,15.39
2018-06-27T01:08:45.835Z,15.42
2018-06-27T01:11:14.317Z,15.27
2018-06-27T01:13:43.100Z,15.37
2018-06-27T01:16:25.034Z,15.44
2018-06-27T01:18:54.460Z,15.38
2018-06-27T01:21:23.397Z,15.33
2018-06-27T01:23:52.174Z,15.27
2018-06-27T01:26:21.023Z,15.25
2018-06-27T01:28:49.700Z,15.26
2018-06-27T01:31:18.127Z,15.27
2018-06-27T01:33:46.766Z,15.23
2018-06-27T01:36:15.371Z,15.14
2018-06-27T01:38:43.999Z,15.19
2018-06-27T01:41:12.805Z,15.11
2018-06-27T01:43:41.262Z,15.14
2018-06-27T01:46:09.656Z,15.15
2018-06-27T01:48:38.175Z,15.08
2018-06-27T01:51:06.823Z,14.95
2018-06-27T01:53:36.578Z,14.98
2018-06-27T01:56:07.395Z,15.05
2018-06-27T01:58:36.050Z,14.96
2018-06-27T02:01:04.780Z,14.98
2018-06-27T02:03:33.236Z,14.99
2018-06-27T02:06:01.929Z,14.87
2018-06-27T02:08:30.724Z,14.91
2018-06-27T02:10:59.164Z,14.90
2018-06-27T02:13:27.688Z,14.87
2018-06-27T02:15:56.325Z,14.74
2018-06-27T02:18:24.772Z,14.73
2018-06-27T02:20:53.333Z,14.78
2018-06-27T02:23:21.788Z,14.85
2018-06-27T02:25:50.416Z,14.81
2018-06-27T02:28:18.939Z,14.86
2018-06-27T02:30:47.465Z,14.78
2018-06-27T02:33:21.465Z,14.82
2018-06-27T02:35:50.145Z,14.78
2018-06-27T02:38:18.643Z,14.74
2018-06-27T02:40:47.344Z,14.75
2018-06-27T02:45:46.436Z,14.68
2018-06-27T02:48:14.937Z,14.69
2018-06-27T02:50:43.637Z,14.66
2018-06-27T02:53:12.441Z,14.68
2018-06-27T02:55:41.083Z,14.52
2018-06-27T02:58:09.547Z,14.59
2018-06-27T03:00:38.180Z,14.66
2018-06-27T03:03:06.763Z,14.50
2018-06-27T03:05:35.177Z,14.53
2018-06-27T03:08:03.677Z,14.50
2018-06-27T03:10:32.594Z,14.49
2018-06-27T03:13:01.248Z,14.45
2018-06-27T03:15:29.599Z,14.40
2018-06-27T03:17:58.017Z,14.41
2018-06-27T03:20:26.699Z,14.50
2018-06-27T03:22:55.085Z,14.43
2018-06-27T03:25:23.559Z,14.51
2018-06-27T03:27:52.063Z,14.47
2018-06-27T03:30:20.629Z,14.42
2018-06-27T03:32:49.120Z,14.54
2018-06-27T03:35:17.720Z,14.36
2018-06-27T03:37:46.277Z,14.36
2018-06-27T03:40:15.218Z,14.35
2018-06-27T03:42:43.936Z,14.38
2018-06-27T03:45:12.342Z,14.51
2018-06-27T03:47:40.892Z,14.51
2018-06-27T03:50:09.512Z,14.54
2018-06-27T03:52:45.552Z,14.54
2018-06-27T03:55:14.385Z,14.48
2018-06-27T03:57:43.009Z,14.49
2018-06-27T04:00:12.267Z,14.51
2018-06-27T04:02:40.766Z,14.52
2018-06-27T04:05:09.462Z,14.46
2018-06-27T04:07:38.255Z,14.48
2018-06-27T04:10:08.541Z,14.48
2018-06-27T04:12:37.100Z,14.52
2018-06-27T04:15:06.136Z,14.56
2018-06-27T04:17:34.773Z,14.68
2018-06-27T04:20:03.449Z,14.82
2018-06-27T04:22:34.121Z,14.76
2018-06-27T04:25:02.656Z,14.89
2018-06-27T04:27:31.804Z,14.91
2018-06-27T04:30:01.954Z,14.97
2018-06-27T04:32:30.780Z,15.04
2018-06-27T04:35:00.309Z,15.08
2018-06-27T04:37:29.222Z,15.15
2018-06-27T04:39:58.408Z,15.11
2018-06-27T04:42:27.005Z,15.24
2018-06-27T04:44:55.705Z,15.36
2018-06-27T04:47:24.268Z,15.23
2018-06-27T04:49:52.969Z,15.28
2018-06-27T04:52:21.600Z,15.49
2018-06-27T04:54:50.232Z,15.55
2018-06-27T04:57:19.005Z,15.41
2018-06-27T04:59:47.876Z,15.44
2018-06-27T05:02:16.431Z,15.37
2018-06-27T05:04:44.840Z,15.46
2018-06-27T05:07:13.324Z,15.69
2018-06-27T05:09:42.020Z,15.65
2018-06-27T05:12:10.452Z,15.72
2018-06-27T05:14:38.774Z,15.92
2018-06-27T05:17:07.238Z,16.14
2018-06-27T05:19:41.990Z,16.08
2018-06-27T05:22:10.923Z,16.33
2018-06-27T05:24:39.191Z,16.48
2018-06-27T05:27:08.020Z,16.58
2018-06-27T05:29:36.770Z,16.56
2018-06-27T05:32:05.440Z,16.75
2018-06-27T05:34:34.336Z,16.84
2018-06-27T05:37:03.256Z,16.85
2018-06-27T05:39:31.774Z,16.92
2018-06-27T05:42:00.236Z,16.91
2018-06-27T05:44:28.981Z,17.02
2018-06-27T05:46:57.542Z,17.17
2018-06-27T05:49:26.184Z,17.34
2018-06-27T05:51:54.791Z,17.24
2018-06-27T05:54:27.716Z,17.13
2018-06-27T05:56:56.845Z,17.13
2018-06-27T05:59:25.357Z,17.22
2018-06-27T06:01:55.279Z,17.48
2018-06-27T06:04:24.267Z,17.70
2018-06-27T06:06:53.760Z,17.75
2018-06-27T06:09:22.563Z,17.72
2018-06-27T06:11:50.984Z,17.70
2018-06-27T06:14:19.621Z,17.81
2018-06-27T06:16:48.140Z,17.95
2018-06-27T06:19:16.764Z,17.80
2018-06-27T06:21:45.214Z,17.97
2018-06-27T06:24:14.276Z,18.07
2018-06-27T06:26:42.836Z,18.14
2018-06-27T06:29:11.367Z,18.17
2018-06-27T06:31:40.264Z,18.15
2018-06-27T06:34:08.916Z,18.03
2018-06-27T06:36:37.395Z,18.21
2018-06-27T06:39:08.556Z,18.08
2018-06-27T06:41:37.452Z,18.18
2018-06-27T06:44:06.194Z,18.17
2018-06-27T06:46:35.297Z,18.08
2018-06-27T06:49:04.121Z,18.19
2018-06-27T06:51:32.716Z,18.37
2018-06-27T06:54:02.769Z,18.26
2018-06-27T06:56:32.201Z,18.36
2018-06-27T06:59:01.315Z,18.51
2018-06-27T07:01:29.835Z,18.47
2018-06-27T07:03:58.407Z,18.20
2018-06-27T07:06:27.105Z,18.37
2018-06-27T07:08:56.343Z,18.53
2018-06-27T07:11:25.144Z,18.71
2018-06-27T07:13:53.572Z,18.65
2018-06-27T07:16:24.964Z,18.89
2018-06-27T07:18:54.207Z,19.16
2018-06-27T07:21:23.720Z,19.04
2018-06-27T07:23:52.085Z,19.24
2018-06-27T07:26:20.758Z,19.28
2018-06-27T07:28:50.451Z,19.44
2018-06-27T07:31:19.178Z,19.60
2018-06-27T07:33:48.043Z,19.38
2018-06-27T07:36:17.114Z,19.49
2018-06-27T07:38:45.661Z,19.33
2018-06-27T07:41:14.535Z,19.42
2018-06-27T07:43:43.404Z,19.37
2018-06-27T07:46:11.817Z,19.60
2018-06-27T07:48:40.396Z,19.69
2018-06-27T07:51:08.847Z,19.60
2018-06-27T07:53:38.248Z,19.50
2018-06-27T07:56:07.372Z,19.44
2018-06-27T07:58:36.067Z,19.65
2018-06-27T08:01:04.676Z,19.71
2018-06-27T08:03:33.004Z,19.87
2018-06-27T08:06:01.729Z,20.05
2018-06-27T08:08:30.188Z,19.92
2018-06-27T08:10:58.889Z,20.07
2018-06-27T08:13:27.476Z,20.10
2018-06-27T08:15:56.083Z,20.30
2018-06-27T08:18:24.553Z,20.25
2018-06-27T08:20:53.200Z,20.18
2018-06-27T08:23:22.072Z,20.39
2018-06-27T08:25:54.924Z,20.49
2018-06-27T08:28:23.372Z,20.68
2018-06-27T08:30:51.972Z,20.79
2018-06-27T08:33:21.439Z,21.02
2018-06-27T08:35:50.442Z,20.97
2018-06-27T08:38:18.991Z,21.01
2018-06-27T08:40:47.648Z,21.26
2018-06-27T08:43:16.077Z,21.49
2018-06-27T08:45:44.981Z,21.44
2018-06-27T08:48:13.603Z,21.19
2018-06-27T08:50:41.954Z,21.26
2018-06-27T08:53:10.754Z,21.33
2018-06-27T08:55:39.241Z,21.36
2018-06-27T08:58:08.364Z,21.36
2018-06-27T09:00:36.960Z,21.70
2018-06-27T09:03:05.717Z,21.75
2018-06-27T09:05:38.613Z,21.86
2018-06-27T09:08:07.951Z,21.95
2018-06-27T09:10:36.547Z,22.02
2018-06-27T09:13:05.168Z,22.09
2018-06-27T09:15:33.620Z,21.96
2018-06-27T09:18:02.267Z,22.03
2018-06-27T09:20:30.784Z,22.14
2018-06-27T09:25:38.033Z,22.08
2018-06-27T09:28:06.574Z,22.23
2018-06-27T09:30:35.183Z,22.26
2018-06-27T09:33:04.094Z,22.35
2018-06-27T09:35:33.457Z,22.30
2018-06-27T09:38:02.888Z,22.40
2018-06-27T09:40:31.253Z,22.46
2018-06-27T09:43:03.452Z,22.64
2018-06-27T09:45:32.280Z,22.75
2018-06-27T09:48:01.019Z,22.69
2018-06-27T09:50:29.896Z,22.78
2018-06-27T09:52:58.742Z,23.04
2018-06-27T09:55:27.141Z,23.14
2018-06-27T09:57:55.914Z,23.14
2018-06-27T10:00:30.074Z,23.28
2018-06-27T10:02:58.725Z,23.05
2018-06-27T10:05:27.377Z,23.08
2018-06-27T10:07:55.967Z,23.01
2018-06-27T10:10:24.663Z,23.06
2018-06-27T10:12:53.640Z,23.13
2018-06-27T10:15:22.345Z,23.11
2018-06-27T10:17:50.944Z,23.26
2018-06-27T10:20:19.449Z,23.37
2018-06-27T10:22:48.128Z,23.29
2018-06-27T10:25:16.700Z,23.36
2018-06-27T10:27:45.942Z,23.58
2018-06-27T10:30:14.437Z,23.66
2018-06-27T10:32:43.821Z,23.47
2018-06-27T10:35:12.228Z,23.40
2018-06-27T10:37:40.866Z,23.65
2018-06-27T10:40:09.260Z,23.69
2018-06-27T10:42:37.914Z,23.86
2018-06-27T10:45:06.319Z,23.98
2018-06-27T10:47:34.593Z,24.04
2018-06-27T10:50:03.282Z,24.07
2018-06-27T10:52:31.766Z,24.09
2018-06-27T10:55:05.024Z,24.03
2018-06-27T10:57:33.497Z,24.01
2018-06-27T11:00:02.161Z,24.14
2018-06-27T11:02:34.142Z,24.35
2018-06-27T11:05:06.174Z,24.56
2018-06-27T11:07:34.831Z,24.63
2018-06-27T11:10:04.302Z,24.75
2018-06-27T11:12:32.794Z,24.89
2018-06-27T11:15:01.397Z,24.69
2018-06-27T11:17:29.929Z,24.55
2018-06-27T11:19:58.423Z,24.72
2018-06-27T11:22:27.067Z,24.82
2018-06-27T11:24:55.540Z,25.08
2018-06-27T11:27:24.993Z,25.23
2018-06-27T11:29:53.695Z,25.19
2018-06-27T11:32:22.620Z,25.20
2018-06-27T11:34:52.985Z,24.98
2018-06-27T11:37:21.734Z,25.13
2018-06-27T11:39:51.322Z,25.57
2018-06-27T11:42:20.777Z,25.65
2018-06-27T11:44:49.134Z,25.84
2018-06-27T11:47:18.694Z,25.82
2018-06-27T11:49:47.267Z,25.70
2018-06-27T11:52:16.170Z,25.55
2018-06-27T11:54:49.491Z,25.69
2018-06-27T11:57:18.002Z,25.67
2018-06-27T11:59:49.095Z,25.65
2018-06-27T12:02:17.801Z,25.88
2018-06-27T12:04:46.268Z,25.98
2018-06-27T12:07:15.306Z,25.82
2018-06-27T12:09:44.025Z,25.48
2018-06-27T12:12:12.530Z,25.56
2018-06-27T12:14:41.426Z,25.39
2018-06-27T12:17:10.005Z,25.43
2018-06-27T12:19:46.034Z,25.58
2018-06-27T12:22:22.640Z,25.66
2018-06-27T12:24:54.474Z,25.73
2018-06-27T12:27:23.195Z,25.91
2018-06-27T12:29:52.242Z,26.02
2018-06-27T12:32:22.181Z,26.11
2018-06-27T12:34:53.110Z,26.16
2018-06-27T12:37:23.310Z,26.40
2018-06-27T12:39:51.972Z,26.57
2018-06-27T12:42:21.656Z,26.58
2018-06-27T12:44:52.249Z,26.19
2018-06-27T12:47:22.802Z,25.93
2018-06-27T12:49:53.791Z,25.79
2018-06-27T12:52:23.077Z,25.62
2018-06-27T12:54:56.248Z,25.49
2018-06-27T12:57:24.872Z,25.66
2018-06-27T12:59:53.608Z,25.94
2018-06-27T13:02:22.366Z,26.22
2018-06-27T13:04:51.058Z,26.54
2018-06-27T13:07:19.322Z,26.87
2018-06-27T13:09:47.727Z,27.04
2018-06-27T13:12:16.369Z,27.09
2018-06-27T13:14:44.950Z,26.44
2018-06-27T13:17:13.956Z,26.44
2018-06-27T13:19:42.442Z,26.75
2018-06-27T13:22:11.065Z,26.94
2018-06-27T13:24:39.789Z,26.82
2018-06-27T13:27:08.284Z,26.94
2018-06-27T13:29:36.853Z,26.79
2018-06-27T13:32:05.582Z,26.22
2018-06-27T13:34:33.925Z,26.18
2018-06-27T13:37:02.707Z,26.23
2018-06-27T13:39:31.313Z,26.46
2018-06-27T13:41:59.963Z,26.93
2018-06-27T13:44:28.794Z,27.01
2018-06-27T13:46:57.836Z,27.25
2018-06-27T13:49:26.739Z,27.58
2018-06-27T13:51:55.412Z,27.82
2018-06-27T13:54:23.957Z,27.40
2018-06-27T13:56:52.959Z,26.88
2018-06-27T13:59:21.459Z,26.31
2018-06-27T14:01:50.030Z,26.41
2018-06-27T14:04:18.689Z,26.38
2018-06-27T14:06:47.098Z,26.25
2018-06-27T14:09:15.761Z,26.53
2018-06-27T14:11:44.336Z,26.86
2018-06-27T14:14:12.876Z,27.21
2018-06-27T14:16:41.362Z,27.53
2018-06-27T14:19:10.114Z,27.35
2018-06-27T14:21:38.854Z,28.11
2018-06-27T14:24:07.518Z,28.19
2018-06-27T14:26:35.993Z,28.35
2018-06-27T14:29:04.719Z,28.01
2018-06-27T14:31:33.244Z,27.59
2018-06-27T14:34:01.778Z,27.07
2018-06-27T14:36:30.381Z,27.02
2018-06-27T14:38:58.892Z,26.98
2018-06-27T14:41:27.549Z,27.18
2018-06-27T14:43:56.476Z,27.21
2018-06-27T14:46:25.037Z,27.24
2018-06-27T14:48:54.013Z,27.23
2018-06-27T14:51:22.609Z,27.53
2018-06-27T14:53:51.064Z,27.72
2018-06-27T14:56:19.731Z,27.42
2018-06-27T14:58:48.415Z,27.71
2018-06-27T15:01:17.194Z,27.95
2018-06-27T15:03:45.897Z,28.01
2018-06-27T15:06:14.768Z,27.71
2018-06-27T15:08:44.000Z,27.93
2018-06-27T15:11:12.665Z,28.21
2018-06-27T15:13:41.129Z,27.98
2018-06-27T15:16:09.868Z,28.03
2018-06-27T15:18:39.966Z,28.11
2018-06-27T15:21:08.620Z,28.19
2018-06-27T15:23:37.599Z,28.11
2018-06-27T15:26:06.881Z,28.64
2018-06-27T15:28:35.354Z,27.90
2018-06-27T15:31:04.605Z,27.45
2018-06-27T15:33:33.398Z,27.18
2018-06-27T15:36:02.492Z,26.68
2018-06-27T15:38:31.010Z,26.63
2018-06-27T15:40:59.492Z,26.69
2018-06-27T15:43:28.062Z,26.63
2018-06-27T15:45:57.176Z,26.57
2018-06-27T15:48:25.661Z,26.40
2018-06-27T15:50:54.172Z,26.25
2018-06-27T15:53:23.016Z,26.28
2018-06-27T15:55:52.500Z,26.23
2018-06-27T15:58:20.963Z,26.25
2018-06-27T16:00:49.654Z,26.21
2018-06-27T16:03:18.566Z,26.11
2018-06-27T16:05:47.080Z,26.12
2018-06-27T16:08:15.528Z,26.20
2018-06-27T16:10:44.159Z,26.27
2018-06-27T16:13:12.804Z,26.18
2018-06-27T16:15:41.398Z,26.10
2018-06-27T16:18:09.912Z,26.16
2018-06-27T16:20:38.668Z,26.17
2018-06-27T16:23:07.227Z,26.33
2018-06-27T16:25:35.851Z,26.23
2018-06-27T16:28:04.678Z,26.15
2018-06-27T16:30:33.092Z,26.04
2018-06-27T16:33:01.718Z,25.95
2018-06-27T16:35:30.353Z,25.90
2018-06-27T16:37:58.882Z,25.92
2018-06-27T16:40:27.665Z,25.82
2018-06-27T16:42:56.240Z,25.92
2018-06-27T16:45:25.110Z,25.93
2018-06-27T16:47:56.177Z,25.96
2018-06-27T16:50:26.316Z,25.93
2018-06-27T16:52:55.030Z,25.96
2018-06-27T16:55:23.656Z,25.89
2018-06-27T16:57:52.287Z,25.72
2018-06-27T17:00:20.857Z,25.72
2018-06-27T17:02:49.505Z,25.78
2018-06-27T17:05:18.196Z,25.77
2018-06-27T17:07:46.820Z,25.62
2018-06-27T17:10:15.713Z,25.63
2018-06-27T17:12:44.035Z,25.58
2018-06-27T17:15:12.581Z,25.59
2018-06-27T17:17:41.199Z,25.49
2018-06-27T17:20:10.057Z,25.46
2018-06-27T17:22:38.531Z,25.40
2018-06-27T17:25:07.352Z,25.37
2018-06-27T17:27:35.910Z,25.29
2018-06-27T17:30:04.909Z,25.27
2018-06-27T17:32:33.578Z,25.25
2018-06-27T17:35:03.236Z,25.33
2018-06-27T17:37:32.094Z,25.34
2018-06-27T17:40:00.850Z,25.38
2018-06-27T17:42:29.461Z,25.40
2018-06-27T17:44:57.956Z,25.40
2018-06-27T17:47:26.847Z,25.32
2018-06-27T17:49:55.812Z,25.42
2018-06-27T17:52:24.243Z,25.51
2018-06-27T17:54:52.961Z,25.47
2018-06-27T17:57:21.504Z,25.35
2018-06-27T17:59:50.042Z,25.29
2018-06-27T18:02:18.618Z,25.37
2018-06-27T18:04:47.207Z,25.27
2018-06-27T18:07:16.462Z,25.23
2018-06-27T18:09:45.065Z,25.22
2018-06-27T18:12:13.603Z,25.27
2018-06-27T18:14:42.326Z,25.25
2018-06-27T18:17:11.015Z,25.20
2018-06-27T18:19:39.535Z,25.20
2018-06-27T18:22:08.424Z,25.23
2018-06-27T18:24:37.058Z,25.28
2018-06-27T18:27:05.851Z,25.16
2018-06-27T18:29:34.718Z,25.10
2018-06-27T18:32:03.607Z,25.15
2018-06-27T18:34:32.234Z,25.11
2018-06-27T18:37:01.122Z,25.02
2018-06-27T18:39:29.732Z,25.09
2018-06-27T18:41:58.277Z,24.98
2018-06-27T18:44:26.988Z,24.93
2018-06-27T18:46:55.777Z,24.79
2018-06-27T18:49:24.259Z,24.90
2018-06-27T18:51:52.944Z,24.71
2018-06-27T18:54:21.983Z,24.72
2018-06-27T18:56:50.831Z,24.75
2018-06-27T18:59:19.817Z,24.73
2018-06-27T19:01:48.828Z,24.73
2018-06-27T19:04:17.330Z,24.69
2018-06-27T19:06:45.733Z,24.65
2018-06-27T19:09:14.232Z,24.55
2018-06-27T19:11:42.702Z,24.52
2018-06-27T19:14:11.357Z,24.52
2018-06-27T19:16:39.923Z,24.55
2018-06-27T19:19:08.593Z,24.48
2018-06-27T19:21:37.290Z,24.45
2018-06-27T19:24:06.499Z,24.42
2018-06-27T19:26:35.213Z,24.39
2018-06-27T19:29:03.779Z,24.36
2018-06-27T19:31:32.474Z,24.30
2018-06-27T19:34:01.373Z,24.32
2018-06-27T19:36:30.320Z,24.27
2018-06-27T19:38:58.933Z,24.16
2018-06-27T19:41:27.422Z,24.15
2018-06-27T19:43:56.022Z,24.11
2018-06-27T19:46:24.434Z,24.13
2018-06-27T19:48:53.113Z,24.11
2018-06-27T19:51:21.784Z,24.02
2018-06-27T19:53:50.234Z,23.79
2018-06-27T19:56:18.783Z,23.90
2018-06-27T19:58:47.322Z,23.87
2018-06-27T20:01:15.966Z,23.80
2018-06-27T20:03:44.508Z,23.77
2018-06-27T20:06:13.052Z,23.70
2018-06-27T20:08:41.637Z,23.60
2018-06-27T20:11:10.063Z,23.66
2018-06-27T20:13:39.359Z,23.78
2018-06-27T20:16:08.042Z,23.59
2018-06-27T20:18:36.547Z,23.60
2018-06-27T20:21:05.044Z,23.50
2018-06-27T20:23:33.618Z,23.37
2018-06-27T20:26:02.200Z,23.48
2018-06-27T20:28:30.834Z,23.43
2018-06-27T20:30:59.305Z,23.33
2018-06-27T20:33:27.569Z,23.36
2018-06-27T20:35:56.414Z,23.30
2018-06-27T20:38:25.010Z,23.26
2018-06-27T20:40:53.276Z,23.26
2018-06-27T20:43:21.844Z,23.27
2018-06-27T20:45:50.333Z,23.18
2018-06-27T20:48:18.851Z,23.14
2018-06-27T20:50:47.410Z,23.18
2018-06-27T20:53:15.924Z,23.08
2018-06-27T20:55:44.826Z,23.09
2018-06-27T20:58:13.476Z,23.14
2018-06-27T21:00:42.325Z,22.94
2018-06-27T21:03:11.030Z,22.93
2018-06-27T21:05:39.742Z,22.94
2018-06-27T21:08:08.408Z,22.92
2018-06-27T21:10:37.277Z,22.84
2018-06-27T21:13:05.763Z,22.70
2018-06-27T21:15:34.427Z,22.74
2018-06-27T21:18:03.213Z,22.73
2018-06-27T21:20:31.928Z,22.74
2018-06-27T21:23:00.493Z,22.62
2018-06-27T21:25:28.751Z,22.59
2018-06-27T21:27:57.197Z,22.62
2018-06-27T21:30:25.604Z,22.58
2018-06-27T21:32:54.074Z,22.53
2018-06-27T21:35:22.689Z,22.49
2018-06-27T21:37:51.128Z,22.47
2018-06-27T21:40:19.725Z,22.43
2018-06-27T21:42:48.365Z,22.29
2018-06-27T21:45:17.316Z,22.20
2018-06-27T21:47:45.733Z,22.30
2018-06-27T21:50:14.041Z,22.26
2018-06-27T21:52:42.615Z,22.23
2018-06-27T21:55:11.065Z,22.19
2018-06-27T21:57:39.685Z,22.18
2018-06-27T22:00:10.145Z,22.16
2018-06-27T22:02:38.745Z,22.13
2018-06-27T22:05:11.067Z,22.13
2018-06-27T22:07:40.273Z,22.11
2018-06-27T22:10:12.043Z,22.08
2018-06-27T22:12:40.570Z,22.07
2018-06-27T22:15:09.184Z,22.05
2018-06-27T22:17:37.675Z,22.01
2018-06-27T22:20:06.121Z,21.92
2018-06-27T22:22:34.791Z,21.81
2018-06-27T22:25:03.326Z,21.84
2018-06-27T22:27:31.996Z,21.81
2018-06-27T22:30:00.869Z,21.79
2018-06-27T22:32:29.432Z,21.69
2018-06-27T22:34:58.290Z,21.72
2018-06-27T22:37:27.025Z,21.63
2018-06-27T22:39:55.566Z,21.74
2018-06-27T22:42:24.006Z,21.66
2018-06-27T22:44:53.153Z,21.55
2018-06-27T22:47:21.845Z,21.60
2018-06-27T22:49:50.361Z,21.59
2018-06-27T22:52:18.979Z,21.50
2018-06-27T22:54:47.438Z,21.48
2018-06-27T22:57:15.984Z,21.52
2018-06-27T22:59:44.501Z,21.47
2018-06-27T23:02:13.101Z,21.39
2018-06-27T23:04:41.702Z,21.37
2018-06-27T23:07:10.078Z,21.37
2018-06-27T23:09:38.605Z,21.31
2018-06-27T23:12:07.087Z,21.19
2018-06-27T23:14:35.767Z,21.30
2018-06-27T23:17:04.621Z,21.21
2018-06-27T23:19:33.207Z,21.21
2018-06-27T23:22:02.445Z,21.24
2018-06-27T23:24:31.281Z,21.20
2018-06-27T23:27:00.115Z,20.99
2018-06-27T23:29:28.665Z,21.06
2018-06-27T23:31:57.025Z,21.16
2018-06-27T23:34:25.516Z,21.09
2018-06-27T23:36:54.161Z,21.10
2018-06-27T23:39:22.686Z,21.08
2018-06-27T23:41:51.200Z,21.03
2018-06-27T23:44:19.899Z,20.98
2018-06-27T23:46:48.372Z,20.97
2018-06-27T23:49:16.859Z,20.87
2018-06-27T23:51:45.640Z,20.84
2018-06-27T23:54:14.218Z,20.85
2018-06-27T23:56:42.804Z,20.79
2018-06-27T23:59:11.244Z,20.79
